Calverton, New York
Current Conditions -  °F | °C
As of 3:53 PM on Thursday 23 Oct 2014 (Local Time) from KFOK Reporting Station
Overcast Overcast  
Wind Chill: 56°   Ceiling: 1600
Heat Index: 56°   Visibility: 10mi
Dew Point: 49°   Wind: 16mph
Humidity: 77%   Direction: 350°N
Pressure: 29.6"   Gusts: 23mph
Location:  40.92°N, 72.76°W
Report Text: KFOK 231953Z 35014G20KT 10SM OVC016 13/09 A2960 RMK AO2 PK WND 33026/1924 SLP023 T01330094
Loading
Personal Weather Stations






























Interactive Weather Map
Tropical Storm Tracking
New forecast layout! Learn more

10-Day Weather Forecast

Advertisements
Track Severe Weather on mobile